sensor_id;sensor_type;location;lat;lon;timestamp;P1;durP1;ratioP1;P2;durP2;ratioP2
68108;SDS011;54893;49.864;19.084;2023-05-08T00:01:34;17.03;;;9.07;;
68108;SDS011;54893;49.864;19.084;2023-05-08T00:06:35;17.73;;;8.07;;
68108;SDS011;54893;49.864;19.084;2023-05-08T00:11:35;16.73;;;8.40;;
68108;SDS011;54893;49.864;19.084;2023-05-08T00:16:35;29.57;;;14.40;;
68108;SDS011;54893;49.864;19.084;2023-05-08T00:21:36;29.27;;;15.63;;
68108;SDS011;54893;49.864;19.084;2023-05-08T00:26:36;17.87;;;9.17;;
68108;SDS011;54893;49.864;19.084;2023-05-08T00:31:37;19.37;;;8.83;;
68108;SDS011;54893;49.864;19.084;2023-05-08T00:36:37;21.03;;;9.60;;
68108;SDS011;54893;49.864;19.084;2023-05-08T00:41:37;16.10;;;8.80;;
68108;SDS011;54893;49.864;19.084;2023-05-08T00:46:38;14.73;;;7.37;;
68108;SDS011;54893;49.864;19.084;2023-05-08T00:51:40;15.75;;;7.70;;
68108;SDS011;54893;49.864;19.084;2023-05-08T00:56:42;14.20;;;6.53;;
68108;SDS011;54893;49.864;19.084;2023-05-08T01:01:43;15.07;;;6.87;;
68108;SDS011;54893;49.864;19.084;2023-05-08T01:06:44;17.47;;;8.43;;
68108;SDS011;54893;49.864;19.084;2023-05-08T01:11:46;16.77;;;8.40;;
68108;SDS011;54893;49.864;19.084;2023-05-08T01:17:23;70.15;;;32.78;;
68108;SDS011;54893;49.864;19.084;2023-05-08T01:28:13;23.20;;;13.10;;
68108;SDS011;54893;49.864;19.084;2023-05-08T01:39:29;17.17;;;8.73;;
68108;SDS011;54893;49.864;19.084;2023-05-08T01:44:37;36.65;;;17.20;;
68108;SDS011;54893;49.864;19.084;2023-05-08T01:49:43;15.13;;;7.93;;
68108;SDS011;54893;49.864;19.084;2023-05-08T01:55:07;45.83;;;18.48;;
68108;SDS011;54893;49.864;19.084;2023-05-08T02:00:10;52.67;;;19.63;;
68108;SDS011;54893;49.864;19.084;2023-05-08T02:05:12;39.53;;;15.37;;
68108;SDS011;54893;49.864;19.084;2023-05-08T02:10:13;37.47;;;15.15;;
68108;SDS011;54893;49.864;19.084;2023-05-08T02:15:15;28.83;;;12.90;;
68108;SDS011;54893;49.864;19.084;2023-05-08T02:20:17;31.25;;;12.15;;
68108;SDS011;54893;49.864;19.084;2023-05-08T02:25:19;36.60;;;14.38;;
68108;SDS011;54893;49.864;19.084;2023-05-08T02:30:20;22.60;;;9.87;;
68108;SDS011;54893;49.864;19.084;2023-05-08T02:35:23;23.02;;;9.07;;
68108;SDS011;54893;49.864;19.084;2023-05-08T02:40:25;67.00;;;21.08;;
68108;SDS011;54893;49.864;19.084;2023-05-08T02:45:31;25.48;;;8.52;;
68108;SDS011;54893;49.864;19.084;2023-05-08T02:50:44;151.45;;;41.70;;
68108;SDS011;54893;49.864;19.084;2023-05-08T02:55:55;19.73;;;9.00;;
68108;SDS011;54893;49.864;19.084;2023-05-08T03:01:00;172.75;;;39.08;;
68108;SDS011;54893;49.864;19.084;2023-05-08T03:06:07;23.80;;;8.93;;
68108;SDS011;54893;49.864;19.084;2023-05-08T03:11:23;11.48;;;6.05;;
68108;SDS011;54893;49.864;19.084;2023-05-08T03:16:27;20.15;;;9.57;;
68108;SDS011;54893;49.864;19.084;2023-05-08T03:21:31;18.50;;;7.80;;
68108;SDS011;54893;49.864;19.084;2023-05-08T03:26:33;23.30;;;11.07;;
68108;SDS011;54893;49.864;19.084;2023-05-08T03:31:33;13.20;;;6.13;;
68108;SDS011;54893;49.864;19.084;2023-05-08T03:36:35;13.52;;;6.32;;
68108;SDS011;54893;49.864;19.084;2023-05-08T03:41:35;20.40;;;7.87;;
68108;SDS011;54893;49.864;19.084;2023-05-08T03:46:36;20.73;;;8.10;;
68108;SDS011;54893;49.864;19.084;2023-05-08T03:51:38;14.25;;;6.95;;
68108;SDS011;54893;49.864;19.084;2023-05-08T03:56:39;13.03;;;5.83;;
68108;SDS011;54893;49.864;19.084;2023-05-08T04:01:47;11.50;;;5.33;;
68108;SDS011;54893;49.864;19.084;2023-05-08T04:12:08;9.75;;;4.88;;
68108;SDS011;54893;49.864;19.084;2023-05-08T04:17:22;11.07;;;4.80;;
68108;SDS011;54893;49.864;19.084;2023-05-08T04:22:52;10.32;;;5.30;;
68108;SDS011;54893;49.864;19.084;2023-05-08T04:27:53;7.63;;;4.03;;
68108;SDS011;54893;49.864;19.084;2023-05-08T04:32:56;10.48;;;5.68;;
68108;SDS011;54893;49.864;19.084;2023-05-08T04:37:58;9.13;;;4.70;;
68108;SDS011;54893;49.864;19.084;2023-05-08T04:42:59;8.87;;;4.83;;
68108;SDS011;54893;49.864;19.084;2023-05-08T04:47:59;9.00;;;4.67;;
68108;SDS011;54893;49.864;19.084;2023-05-08T04:53:00;8.10;;;4.30;;
68108;SDS011;54893;49.864;19.084;2023-05-08T04:58:04;9.60;;;4.70;;
68108;SDS011;54893;49.864;19.084;2023-05-08T05:03:05;10.40;;;5.17;;
68108;SDS011;54893;49.864;19.084;2023-05-08T05:08:05;9.40;;;4.30;;
68108;SDS011;54893;49.864;19.084;2023-05-08T05:24:14;12.55;;;6.55;;
68108;SDS011;54893;49.864;19.084;2023-05-08T05:29:14;11.47;;;5.93;;
68108;SDS011;54893;49.864;19.084;2023-05-08T05:34:14;13.60;;;5.83;;
68108;SDS011;54893;49.864;19.084;2023-05-08T05:39:15;12.97;;;6.90;;
68108;SDS011;54893;49.864;19.084;2023-05-08T05:44:15;11.90;;;6.37;;
68108;SDS011;54893;49.864;19.084;2023-05-08T05:49:15;12.37;;;6.10;;
68108;SDS011;54893;49.864;19.084;2023-05-08T05:54:16;15.27;;;6.43;;
68108;SDS011;54893;49.864;19.084;2023-05-08T05:59:16;15.90;;;7.00;;
68108;SDS011;54893;49.864;19.084;2023-05-08T06:04:17;13.07;;;6.20;;
68108;SDS011;54893;49.864;19.084;2023-05-08T06:09:17;13.53;;;6.50;;
68108;SDS011;54893;49.864;19.084;2023-05-08T06:14:18;15.27;;;5.97;;
68108;SDS011;54893;49.864;19.084;2023-05-08T06:19:18;14.97;;;7.03;;
68108;SDS011;54893;49.864;19.084;2023-05-08T06:24:18;15.07;;;7.20;;
68108;SDS011;54893;49.864;19.084;2023-05-08T06:29:19;14.00;;;6.20;;
68108;SDS011;54893;49.864;19.084;2023-05-08T06:34:19;12.47;;;6.10;;
68108;SDS011;54893;49.864;19.084;2023-05-08T06:39:20;12.37;;;6.80;;
68108;SDS011;54893;49.864;19.084;2023-05-08T06:44:20;11.23;;;6.10;;
68108;SDS011;54893;49.864;19.084;2023-05-08T06:49:20;13.20;;;7.63;;
68108;SDS011;54893;49.864;19.084;2023-05-08T06:54:21;13.07;;;6.22;;
68108;SDS011;54893;49.864;19.084;2023-05-08T06:59:22;13.27;;;6.60;;
68108;SDS011;54893;49.864;19.084;2023-05-08T07:04:23;10.57;;;5.77;;
68108;SDS011;54893;49.864;19.084;2023-05-08T07:09:23;14.17;;;5.53;;
68108;SDS011;54893;49.864;19.084;2023-05-08T07:14:23;9.23;;;5.20;;
68108;SDS011;54893;49.864;19.084;2023-05-08T07:19:24;10.17;;;5.07;;
68108;SDS011;54893;49.864;19.084;2023-05-08T07:24:24;7.73;;;3.80;;
68108;SDS011;54893;49.864;19.084;2023-05-08T07:29:25;8.77;;;4.10;;
68108;SDS011;54893;49.864;19.084;2023-05-08T07:34:26;9.32;;;4.22;;
68108;SDS011;54893;49.864;19.084;2023-05-08T07:39:26;8.07;;;4.17;;
68108;SDS011;54893;49.864;19.084;2023-05-08T07:44:27;9.20;;;4.30;;
68108;SDS011;54893;49.864;19.084;2023-05-08T07:49:28;10.18;;;4.38;;
68108;SDS011;54893;49.864;19.084;2023-05-08T07:54:29;6.83;;;3.83;;
68108;SDS011;54893;49.864;19.084;2023-05-08T07:59:29;14.50;;;6.13;;
68108;SDS011;54893;49.864;19.084;2023-05-08T08:04:29;16.30;;;7.43;;
68108;SDS011;54893;49.864;19.084;2023-05-08T08:09:30;14.03;;;6.30;;
68108;SDS011;54893;49.864;19.084;2023-05-08T08:14:31;14.10;;;7.03;;
68108;SDS011;54893;49.864;19.084;2023-05-08T08:19:32;11.40;;;5.97;;
68108;SDS011;54893;49.864;19.084;2023-05-08T08:24:32;10.57;;;5.50;;
68108;SDS011;54893;49.864;19.084;2023-05-08T08:29:32;22.33;;;8.77;;
68108;SDS011;54893;49.864;19.084;2023-05-08T08:34:33;14.10;;;6.63;;
68108;SDS011;54893;49.864;19.084;2023-05-08T08:39:33;12.47;;;6.17;;
68108;SDS011;54893;49.864;19.084;2023-05-08T08:44:34;20.13;;;8.13;;
68108;SDS011;54893;49.864;19.084;2023-05-08T08:49:35;11.87;;;5.67;;
68108;SDS011;54893;49.864;19.084;2023-05-08T08:54:39;15.75;;;6.65;;
68108;SDS011;54893;49.864;19.084;2023-05-08T08:59:43;13.53;;;5.83;;
68108;SDS011;54893;49.864;19.084;2023-05-08T09:04:43;17.20;;;6.50;;
68108;SDS011;54893;49.864;19.084;2023-05-08T09:09:44;9.07;;;4.00;;
68108;SDS011;54893;49.864;19.084;2023-05-08T09:14:45;7.37;;;3.50;;
68108;SDS011;54893;49.864;19.084;2023-05-08T09:19:47;7.97;;;3.60;;
68108;SDS011;54893;49.864;19.084;2023-05-08T09:35:01;7.23;;;3.70;;
68108;SDS011;54893;49.864;19.084;2023-05-08T09:40:20;7.18;;;3.70;;
68108;SDS011;54893;49.864;19.084;2023-05-08T09:45:31;8.33;;;3.50;;
68108;SDS011;54893;49.864;19.084;2023-05-08T09:50:32;7.38;;;3.35;;
68108;SDS011;54893;49.864;19.084;2023-05-08T09:55:45;7.00;;;3.43;;
68108;SDS011;54893;49.864;19.084;2023-05-08T10:00:46;7.05;;;3.80;;
68108;SDS011;54893;49.864;19.084;2023-05-08T10:05:46;6.47;;;3.37;;
68108;SDS011;54893;49.864;19.084;2023-05-08T10:10:47;7.27;;;3.00;;
68108;SDS011;54893;49.864;19.084;2023-05-08T10:15:48;6.80;;;3.17;;
68108;SDS011;54893;49.864;19.084;2023-05-08T10:20:53;10.15;;;4.05;;
68108;SDS011;54893;49.864;19.084;2023-05-08T10:25:55;7.20;;;3.57;;
68108;SDS011;54893;49.864;19.084;2023-05-08T10:31:02;10.52;;;3.60;;
68108;SDS011;54893;49.864;19.084;2023-05-08T10:36:04;7.57;;;3.92;;
68108;SDS011;54893;49.864;19.084;2023-05-08T10:41:05;10.17;;;4.43;;
68108;SDS011;54893;49.864;19.084;2023-05-08T10:46:24;7.55;;;3.40;;
68108;SDS011;54893;49.864;19.084;2023-05-08T10:57:09;6.82;;;4.18;;
68108;SDS011;54893;49.864;19.084;2023-05-08T11:02:10;8.07;;;4.10;;
68108;SDS011;54893;49.864;19.084;2023-05-08T11:07:10;11.00;;;4.20;;
68108;SDS011;54893;49.864;19.084;2023-05-08T11:17:21;7.30;;;3.90;;
68108;SDS011;54893;49.864;19.084;2023-05-08T11:22:24;8.00;;;3.70;;
68108;SDS011;54893;49.864;19.084;2023-05-08T11:27:33;7.73;;;3.50;;
68108;SDS011;54893;49.864;19.084;2023-05-08T11:48:35;7.88;;;4.55;;
68108;SDS011;54893;49.864;19.084;2023-05-08T11:53:37;7.37;;;4.10;;
68108;SDS011;54893;49.864;19.084;2023-05-08T11:58:38;10.93;;;4.90;;
68108;SDS011;54893;49.864;19.084;2023-05-08T12:03:38;7.93;;;4.53;;
68108;SDS011;54893;49.864;19.084;2023-05-08T12:08:39;10.27;;;4.88;;
68108;SDS011;54893;49.864;19.084;2023-05-08T12:13:39;7.97;;;5.00;;
68108;SDS011;54893;49.864;19.084;2023-05-08T12:18:40;9.27;;;5.37;;
68108;SDS011;54893;49.864;19.084;2023-05-08T12:23:42;9.40;;;3.80;;
68108;SDS011;54893;49.864;19.084;2023-05-08T12:28:43;7.43;;;4.07;;
68108;SDS011;54893;49.864;19.084;2023-05-08T12:33:45;6.77;;;4.10;;
68108;SDS011;54893;49.864;19.084;2023-05-08T12:38:46;10.88;;;4.00;;
68108;SDS011;54893;49.864;19.084;2023-05-08T12:43:46;9.23;;;4.40;;
68108;SDS011;54893;49.864;19.084;2023-05-08T12:48:48;9.00;;;3.80;;
68108;SDS011;54893;49.864;19.084;2023-05-08T12:53:48;8.00;;;4.33;;
68108;SDS011;54893;49.864;19.084;2023-05-08T12:58:49;17.58;;;4.65;;
68108;SDS011;54893;49.864;19.084;2023-05-08T13:03:51;9.73;;;4.10;;
68108;SDS011;54893;49.864;19.084;2023-05-08T13:08:53;9.95;;;4.40;;
68108;SDS011;54893;49.864;19.084;2023-05-08T13:13:54;8.67;;;4.37;;
68108;SDS011;54893;49.864;19.084;2023-05-08T13:18:54;8.90;;;4.63;;
68108;SDS011;54893;49.864;19.084;2023-05-08T13:23:54;7.27;;;3.70;;
68108;SDS011;54893;49.864;19.084;2023-05-08T13:28:55;8.38;;;3.90;;
68108;SDS011;54893;49.864;19.084;2023-05-08T13:33:55;6.70;;;3.70;;
68108;SDS011;54893;49.864;19.084;2023-05-08T13:38:56;6.20;;;3.42;;
68108;SDS011;54893;49.864;19.084;2023-05-08T13:43:56;10.48;;;3.95;;
68108;SDS011;54893;49.864;19.084;2023-05-08T13:48:57;8.73;;;4.55;;
68108;SDS011;54893;49.864;19.084;2023-05-08T13:53:57;8.90;;;4.10;;
68108;SDS011;54893;49.864;19.084;2023-05-08T13:58:57;7.50;;;4.20;;
68108;SDS011;54893;49.864;19.084;2023-05-08T14:03:58;7.85;;;4.55;;
68108;SDS011;54893;49.864;19.084;2023-05-08T14:08:58;12.07;;;4.75;;
68108;SDS011;54893;49.864;19.084;2023-05-08T14:13:59;6.53;;;3.65;;
68108;SDS011;54893;49.864;19.084;2023-05-08T14:18:59;7.72;;;4.10;;
68108;SDS011;54893;49.864;19.084;2023-05-08T14:24:00;9.35;;;3.92;;
68108;SDS011;54893;49.864;19.084;2023-05-08T14:29:00;7.47;;;4.10;;
68108;SDS011;54893;49.864;19.084;2023-05-08T14:34:01;11.77;;;5.53;;
68108;SDS011;54893;49.864;19.084;2023-05-08T14:39:01;12.97;;;7.80;;
68108;SDS011;54893;49.864;19.084;2023-05-08T14:44:02;15.82;;;8.45;;
68108;SDS011;54893;49.864;19.084;2023-05-08T14:49:02;9.77;;;5.07;;
68108;SDS011;54893;49.864;19.084;2023-05-08T14:54:03;9.10;;;4.47;;
68108;SDS011;54893;49.864;19.084;2023-05-08T14:59:03;21.13;;;8.90;;
68108;SDS011;54893;49.864;19.084;2023-05-08T15:04:04;12.43;;;6.20;;
68108;SDS011;54893;49.864;19.084;2023-05-08T15:09:05;11.60;;;5.10;;
68108;SDS011;54893;49.864;19.084;2023-05-08T15:14:07;11.27;;;5.63;;
68108;SDS011;54893;49.864;19.084;2023-05-08T15:19:07;29.23;;;9.60;;
68108;SDS011;54893;49.864;19.084;2023-05-08T15:24:08;15.95;;;5.95;;
68108;SDS011;54893;49.864;19.084;2023-05-08T15:29:08;11.27;;;5.27;;
68108;SDS011;54893;49.864;19.084;2023-05-08T15:34:10;12.87;;;5.53;;
68108;SDS011;54893;49.864;19.084;2023-05-08T15:39:10;8.53;;;4.23;;
68108;SDS011;54893;49.864;19.084;2023-05-08T15:44:10;9.63;;;4.97;;
68108;SDS011;54893;49.864;19.084;2023-05-08T15:49:12;12.57;;;5.27;;
68108;SDS011;54893;49.864;19.084;2023-05-08T15:54:13;10.47;;;6.43;;
68108;SDS011;54893;49.864;19.084;2023-05-08T15:59:13;8.53;;;3.80;;
68108;SDS011;54893;49.864;19.084;2023-05-08T16:04:13;7.40;;;4.20;;
68108;SDS011;54893;49.864;19.084;2023-05-08T16:09:14;7.93;;;4.07;;
68108;SDS011;54893;49.864;19.084;2023-05-08T16:14:14;7.43;;;4.17;;
68108;SDS011;54893;49.864;19.084;2023-05-08T16:19:16;7.40;;;3.72;;
68108;SDS011;54893;49.864;19.084;2023-05-08T16:24:16;7.67;;;4.67;;
68108;SDS011;54893;49.864;19.084;2023-05-08T16:29:16;7.77;;;3.87;;
68108;SDS011;54893;49.864;19.084;2023-05-08T16:34:17;7.73;;;3.87;;
68108;SDS011;54893;49.864;19.084;2023-05-08T16:39:17;7.13;;;3.97;;
68108;SDS011;54893;49.864;19.084;2023-05-08T16:44:18;7.47;;;3.90;;
68108;SDS011;54893;49.864;19.084;2023-05-08T16:49:18;40.63;;;18.47;;
68108;SDS011;54893;49.864;19.084;2023-05-08T16:54:19;17.50;;;9.87;;
68108;SDS011;54893;49.864;19.084;2023-05-08T16:59:19;19.63;;;8.87;;
68108;SDS011;54893;49.864;19.084;2023-05-08T17:04:19;56.93;;;20.83;;
68108;SDS011;54893;49.864;19.084;2023-05-08T17:09:20;32.30;;;13.47;;
68108;SDS011;54893;49.864;19.084;2023-05-08T17:14:20;65.13;;;22.07;;
68108;SDS011;54893;49.864;19.084;2023-05-08T17:19:21;33.50;;;13.47;;
68108;SDS011;54893;49.864;19.084;2023-05-08T17:24:21;40.47;;;16.70;;
68108;SDS011;54893;49.864;19.084;2023-05-08T17:29:22;25.73;;;11.63;;
68108;SDS011;54893;49.864;19.084;2023-05-08T17:34:22;39.15;;;17.85;;
68108;SDS011;54893;49.864;19.084;2023-05-08T17:39:23;50.20;;;26.77;;
68108;SDS011;54893;49.864;19.084;2023-05-08T17:44:23;26.57;;;15.30;;
68108;SDS011;54893;49.864;19.084;2023-05-08T17:49:23;24.67;;;14.13;;
68108;SDS011;54893;49.864;19.084;2023-05-08T17:54:24;28.30;;;12.30;;
68108;SDS011;54893;49.864;19.084;2023-05-08T17:59:24;29.77;;;16.40;;
68108;SDS011;54893;49.864;19.084;2023-05-08T18:04:25;22.07;;;12.70;;
68108;SDS011;54893;49.864;19.084;2023-05-08T18:09:25;19.60;;;11.17;;
68108;SDS011;54893;49.864;19.084;2023-05-08T18:14:30;17.08;;;9.52;;
68108;SDS011;54893;49.864;19.084;2023-05-08T18:19:31;15.27;;;8.20;;
68108;SDS011;54893;49.864;19.084;2023-05-08T18:24:31;18.20;;;8.50;;
68108;SDS011;54893;49.864;19.084;2023-05-08T18:29:32;23.83;;;11.10;;
68108;SDS011;54893;49.864;19.084;2023-05-08T18:34:32;25.23;;;12.73;;
68108;SDS011;54893;49.864;19.084;2023-05-08T18:39:32;32.63;;;17.50;;
68108;SDS011;54893;49.864;19.084;2023-05-08T18:44:33;35.33;;;17.00;;
68108;SDS011;54893;49.864;19.084;2023-05-08T18:49:33;30.10;;;14.70;;
68108;SDS011;54893;49.864;19.084;2023-05-08T18:54:34;33.90;;;17.77;;
68108;SDS011;54893;49.864;19.084;2023-05-08T18:59:34;40.33;;;19.20;;
68108;SDS011;54893;49.864;19.084;2023-05-08T19:04:34;33.80;;;16.37;;
68108;SDS011;54893;49.864;19.084;2023-05-08T19:09:35;32.33;;;15.95;;
68108;SDS011;54893;49.864;19.084;2023-05-08T19:14:35;34.03;;;14.88;;
68108;SDS011;54893;49.864;19.084;2023-05-08T19:19:36;36.58;;;16.38;;
68108;SDS011;54893;49.864;19.084;2023-05-08T19:24:36;36.87;;;16.93;;
68108;SDS011;54893;49.864;19.084;2023-05-08T19:29:37;34.93;;;16.23;;
68108;SDS011;54893;49.864;19.084;2023-05-08T19:34:37;38.10;;;17.13;;
68108;SDS011;54893;49.864;19.084;2023-05-08T19:39:38;54.87;;;20.47;;
68108;SDS011;54893;49.864;19.084;2023-05-08T19:44:38;45.90;;;17.63;;
68108;SDS011;54893;49.864;19.084;2023-05-08T19:49:39;37.30;;;15.87;;
68108;SDS011;54893;49.864;19.084;2023-05-08T19:54:39;27.60;;;12.77;;
68108;SDS011;54893;49.864;19.084;2023-05-08T19:59:40;55.00;;;21.67;;
68108;SDS011;54893;49.864;19.084;2023-05-08T20:04:40;41.37;;;17.70;;
68108;SDS011;54893;49.864;19.084;2023-05-08T20:09:40;42.93;;;17.77;;
68108;SDS011;54893;49.864;19.084;2023-05-08T20:14:41;34.43;;;15.40;;
68108;SDS011;54893;49.864;19.084;2023-05-08T20:19:41;38.63;;;15.30;;
68108;SDS011;54893;49.864;19.084;2023-05-08T20:24:42;31.97;;;13.57;;
68108;SDS011;54893;49.864;19.084;2023-05-08T20:29:42;34.30;;;13.60;;
68108;SDS011;54893;49.864;19.084;2023-05-08T20:34:42;31.83;;;14.27;;
68108;SDS011;54893;49.864;19.084;2023-05-08T20:39:43;37.17;;;14.95;;
68108;SDS011;54893;49.864;19.084;2023-05-08T20:44:44;31.13;;;12.80;;
68108;SDS011;54893;49.864;19.084;2023-05-08T20:49:44;33.27;;;12.97;;
68108;SDS011;54893;49.864;19.084;2023-05-08T20:54:45;30.87;;;12.87;;
68108;SDS011;54893;49.864;19.084;2023-05-08T20:59:46;33.75;;;14.45;;
68108;SDS011;54893;49.864;19.084;2023-05-08T21:04:47;42.77;;;16.67;;
68108;SDS011;54893;49.864;19.084;2023-05-08T21:09:47;34.73;;;14.57;;
68108;SDS011;54893;49.864;19.084;2023-05-08T21:14:48;31.90;;;13.70;;
68108;SDS011;54893;49.864;19.084;2023-05-08T21:19:48;39.40;;;13.80;;
68108;SDS011;54893;49.864;19.084;2023-05-08T21:24:48;31.03;;;12.90;;
68108;SDS011;54893;49.864;19.084;2023-05-08T21:29:49;36.10;;;12.70;;
68108;SDS011;54893;49.864;19.084;2023-05-08T21:34:49;31.40;;;12.67;;
68108;SDS011;54893;49.864;19.084;2023-05-08T21:39:50;27.03;;;10.83;;
68108;SDS011;54893;49.864;19.084;2023-05-08T21:44:52;29.93;;;11.10;;
68108;SDS011;54893;49.864;19.084;2023-05-08T21:49:53;71.13;;;19.47;;
68108;SDS011;54893;49.864;19.084;2023-05-08T21:54:54;65.18;;;18.85;;
68108;SDS011;54893;49.864;19.084;2023-05-08T21:59:54;64.83;;;21.80;;
68108;SDS011;54893;49.864;19.084;2023-05-08T22:04:55;53.47;;;20.97;;
68108;SDS011;54893;49.864;19.084;2023-05-08T22:09:55;67.57;;;22.47;;
68108;SDS011;54893;49.864;19.084;2023-05-08T22:14:55;95.40;;;26.83;;
68108;SDS011;54893;49.864;19.084;2023-05-08T22:19:56;49.83;;;20.97;;
68108;SDS011;54893;49.864;19.084;2023-05-08T22:24:56;39.63;;;18.07;;
68108;SDS011;54893;49.864;19.084;2023-05-08T22:29:57;69.67;;;22.43;;
68108;SDS011;54893;49.864;19.084;2023-05-08T22:34:59;64.28;;;22.08;;
68108;SDS011;54893;49.864;19.084;2023-05-08T22:40:00;66.00;;;24.43;;
68108;SDS011;54893;49.864;19.084;2023-05-08T22:45:00;57.90;;;23.30;;
68108;SDS011;54893;49.864;19.084;2023-05-08T22:50:01;46.93;;;19.63;;
68108;SDS011;54893;49.864;19.084;2023-05-08T22:55:03;41.40;;;17.63;;
68108;SDS011;54893;49.864;19.084;2023-05-08T23:00:04;34.97;;;16.48;;
68108;SDS011;54893;49.864;19.084;2023-05-08T23:05:06;37.60;;;17.47;;
68108;SDS011;54893;49.864;19.084;2023-05-08T23:10:07;43.40;;;18.48;;
68108;SDS011;54893;49.864;19.084;2023-05-08T23:15:07;38.53;;;17.03;;
68108;SDS011;54893;49.864;19.084;2023-05-08T23:20:08;38.47;;;17.02;;
68108;SDS011;54893;49.864;19.084;2023-05-08T23:25:09;43.07;;;19.40;;
68108;SDS011;54893;49.864;19.084;2023-05-08T23:30:11;39.47;;;18.17;;
68108;SDS011;54893;49.864;19.084;2023-05-08T23:35:15;43.80;;;18.50;;
68108;SDS011;54893;49.864;19.084;2023-05-08T23:40:16;41.63;;;18.52;;
68108;SDS011;54893;49.864;19.084;2023-05-08T23:45:17;50.83;;;21.33;;
68108;SDS011;54893;49.864;19.084;2023-05-08T23:50:17;51.37;;;21.20;;
68108;SDS011;54893;49.864;19.084;2023-05-08T23:55:17;42.93;;;19.10;;
